Time;durP1;ratioP1;P1;durP2;ratioP2;P2;SDS_P1;SDS_P2;PMS_P1;PMS_P2;Temp;Humidity;BMP_temperature;BMP_pressure;BME280_temperature;BME280_humidity;BME280_pressure;Samples;Min_cycle;Max_cycle;Signal;HPM_P1;HPM_P2
2024/03/10 00:00:20;;;;;;;13.00;6.93;;;8.70;91.80;;;;;;4940711;28;20039;-80
2024/03/10 00:02:48;;;;;;;9.90;6.20;;;8.70;91.80;;;;;;4952912;28;20046;-81
2024/03/10 00:05:15;;;;;;;12.65;7.22;;;8.70;91.80;;;;;;4945742;28;20058;-81
2024/03/10 00:07:44;;;;;;;10.90;6.63;;;8.70;91.80;;;;;;4948079;28;20974;-81
2024/03/10 00:10:14;;;;;;;12.63;7.68;;;8.70;91.80;;;;;;4977516;28;20166;-81
2024/03/10 00:12:49;;;;;;;14.75;8.65;;;8.70;91.70;;;;;;4963611;28;20125;-81
2024/03/10 00:15:20;;;;;;;13.25;7.93;;;8.70;91.70;;;;;;4961479;28;20120;-81
2024/03/10 00:17:48;;;;;;;13.68;8.40;;;8.70;91.80;;;;;;4931823;29;20067;-81
2024/03/10 00:20:15;;;;;;;12.35;7.75;;;8.60;91.80;;;;;;4942196;28;20039;-82
2024/03/10 00:22:43;;;;;;;13.77;8.52;;;8.70;91.80;;;;;;4957771;28;20081;-82
2024/03/10 00:25:15;;;;;;;15.45;7.78;;;8.60;91.80;;;;;;4958628;28;20038;-80
2024/03/10 00:27:42;;;;;;;13.68;8.55;;;8.60;91.80;;;;;;4942824;29;20047;-81
2024/03/10 00:30:10;;;;;;;15.00;8.40;;;8.60;91.80;;;;;;4968149;28;20070;-80
2024/03/10 00:32:37;;;;;;;13.30;9.15;;;8.60;91.80;;;;;;4951069;28;20081;-81
2024/03/10 00:35:05;;;;;;;13.05;7.70;;;8.60;91.80;;;;;;4949150;28;20595;-81
2024/03/10 00:37:33;;;;;;;13.80;7.97;;;8.60;91.80;;;;;;4994415;28;20038;-80
2024/03/10 00:40:01;;;;;;;10.55;6.60;;;8.60;91.80;;;;;;4956923;28;20082;-80
2024/03/10 00:42:29;;;;;;;10.73;6.25;;;8.60;91.80;;;;;;4976918;28;20042;-81
2024/03/10 00:44:57;;;;;;;11.25;7.22;;;8.60;91.80;;;;;;4929662;29;20058;-81
2024/03/10 00:47:24;;;;;;;11.52;7.45;;;8.60;91.80;;;;;;4952133;28;20238;-81
2024/03/10 00:49:52;;;;;;;14.02;9.02;;;8.60;91.80;;;;;;4930515;29;20486;-82
2024/03/10 00:52:19;;;;;;;14.50;8.77;;;8.60;91.80;;;;;;4951882;28;20403;-81
2024/03/10 00:54:46;;;;;;;12.68;8.27;;;8.60;91.70;;;;;;4938626;29;20053;-81
2024/03/10 00:57:14;;;;;;;11.45;7.28;;;8.60;91.80;;;;;;4943444;28;20101;-81
2024/03/10 00:59:42;;;;;;;10.45;7.18;;;8.60;91.80;;;;;;4960846;28;20424;-82
2024/03/10 01:02:10;;;;;;;13.52;8.00;;;8.60;91.90;;;;;;4943380;29;20142;-81
2024/03/10 01:04:38;;;;;;;11.82;7.13;;;8.60;91.90;;;;;;4944820;28;20076;-82
2024/03/10 01:07:05;;;;;;;14.55;8.88;;;8.60;91.90;;;;;;4945136;28;20128;-81
2024/03/10 01:09:33;;;;;;;15.20;9.95;;;8.60;92.10;;;;;;4931655;28;20042;-81
2024/03/10 01:12:00;;;;;;;13.90;8.55;;;8.50;91.80;;;;;;4933527;28;20521;-81
2024/03/10 01:14:28;;;;;;;12.45;7.20;;;8.50;91.80;;;;;;4950732;28;20138;-81
2024/03/10 01:16:55;;;;;;;16.55;8.70;;;8.50;91.80;;;;;;4946126;28;20133;-82
2024/03/10 01:19:22;;;;;;;12.45;8.25;;;8.50;91.80;;;;;;4958061;28;20073;-81
2024/03/10 01:21:49;;;;;;;11.98;7.45;;;8.50;91.80;;;;;;4956946;28;20514;-81
2024/03/10 01:24:16;;;;;;;10.68;6.75;;;8.50;91.90;;;;;;4957697;28;20047;-81
2024/03/10 01:26:44;;;;;;;9.68;6.63;;;8.50;92.20;;;;;;4940569;28;20060;-81
2024/03/10 01:29:11;;;;;;;13.73;8.27;;;8.50;91.90;;;;;;4941863;28;20046;-80
2024/03/10 01:31:38;;;;;;;11.95;7.18;;;8.50;92.00;;;;;;4944620;28;20042;-80
2024/03/10 01:34:05;;;;;;;12.23;6.72;;;8.50;92.00;;;;;;4968891;28;20047;-81
2024/03/10 01:36:32;;;;;;;11.15;7.07;;;8.50;92.00;;;;;;4927794;29;20039;-81
2024/03/10 01:38:59;;;;;;;11.38;6.97;;;8.40;92.00;;;;;;4947144;28;20049;-81
2024/03/10 01:41:26;;;;;;;10.02;6.15;;;8.40;92.10;;;;;;4933097;28;20047;-81
2024/03/10 01:43:53;;;;;;;11.60;6.75;;;8.40;92.10;;;;;;4967801;28;20105;-81
2024/03/10 01:46:24;;;;;;;12.38;7.55;;;8.40;92.10;;;;;;4944333;28;20061;-81
2024/03/10 01:48:52;;;;;;;15.18;9.20;;;8.40;92.10;;;;;;4947021;28;20051;-80
2024/03/10 01:51:23;;;;;;;13.88;8.20;;;8.40;92.00;;;;;;4959930;28;20046;-80
2024/03/10 01:53:51;;;;;;;12.50;8.02;;;8.40;92.10;;;;;;4990697;28;20050;-80
2024/03/10 01:56:18;;;;;;;10.95;6.90;;;8.40;92.10;;;;;;4946614;28;20039;-81
2024/03/10 01:58:46;;;;;;;11.68;7.22;;;8.40;92.10;;;;;;4961726;28;20046;-81
2024/03/10 02:01:15;;;;;;;11.95;7.35;;;8.40;92.10;;;;;;4961845;28;20129;-80
2024/03/10 02:03:44;;;;;;;10.85;6.90;;;8.40;92.10;;;;;;4959993;28;20062;-81
2024/03/10 02:06:11;;;;;;;12.07;7.30;;;8.30;92.20;;;;;;4960191;28;20072;-81
2024/03/10 02:08:39;;;;;;;12.18;7.47;;;8.30;92.20;;;;;;4976164;28;20093;-81
2024/03/10 02:11:07;;;;;;;11.65;6.93;;;8.30;92.20;;;;;;4969190;28;20490;-79
2024/03/10 02:13:36;;;;;;;13.27;7.78;;;8.30;92.20;;;;;;4954073;28;20050;-81
2024/03/10 02:16:05;;;;;;;12.95;8.30;;;8.30;92.20;;;;;;4959887;28;20054;-80
2024/03/10 02:18:33;;;;;;;13.23;8.00;;;8.30;92.10;;;;;;4975864;28;20046;-80
2024/03/10 02:21:05;;;;;;;12.65;7.85;;;8.30;92.10;;;;;;4953392;28;20046;-81
2024/03/10 02:23:40;;;;;;;14.80;8.77;;;8.30;92.20;;;;;;4975630;28;20054;-81
2024/03/10 02:26:09;;;;;;;13.18;7.82;;;8.30;92.10;;;;;;4953596;28;20100;-81
2024/03/10 02:28:46;;;;;;;13.98;8.55;;;8.30;92.20;;;;;;4953946;28;20170;-80
2024/03/10 02:47:49;;;;;;;15.57;10.15;;;8.30;92.30;;;;;;4947883;28;20058;-81
2024/03/10 02:50:16;;;;;;;15.60;10.27;;;8.20;92.30;;;;;;4934440;28;20125;-81
2024/03/10 02:52:44;;;;;;;15.45;9.95;;;8.20;92.30;;;;;;4966210;28;20044;-80
2024/03/10 02:55:12;;;;;;;16.23;10.88;;;8.20;92.30;;;;;;4962704;28;20047;-81
2024/03/10 02:57:39;;;;;;;15.73;9.57;;;8.20;92.30;;;;;;4929977;28;20046;-80
2024/03/10 03:00:12;;;;;;;14.35;8.43;;;8.20;92.30;;;;;;4940770;28;20043;-80
2024/03/10 03:02:42;;;;;;;15.48;9.38;;;8.20;92.40;;;;;;4941897;28;20043;-80
2024/03/10 03:05:09;;;;;;;11.35;7.85;;;8.20;92.40;;;;;;4955894;28;20042;-81
2024/03/10 03:07:36;;;;;;;12.63;8.20;;;8.20;92.40;;;;;;4955152;28;20133;-80
2024/03/10 03:10:05;;;;;;;12.70;7.53;;;8.20;92.50;;;;;;4947086;28;20058;-79
2024/03/10 03:12:32;;;;;;;14.45;9.30;;;8.20;92.50;;;;;;4970738;28;20038;-81
2024/03/10 03:15:00;;;;;;;16.00;9.75;;;8.20;92.50;;;;;;4962381;28;20054;-80
2024/03/10 03:17:27;;;;;;;14.50;8.95;;;8.20;92.50;;;;;;4961007;28;20129;-80
2024/03/10 03:19:54;;;;;;;16.35;9.82;;;8.20;92.50;;;;;;4940010;28;20157;-81
2024/03/10 03:22:24;;;;;;;17.88;11.73;;;8.10;92.40;;;;;;4940965;29;20381;-81
2024/03/10 03:24:52;;;;;;;15.63;9.88;;;8.20;92.40;;;;;;4969163;28;20404;-81
2024/03/10 03:27:20;;;;;;;16.90;11.18;;;8.10;92.40;;;;;;4949318;28;20064;-81
2024/03/10 03:29:49;;;;;;;17.85;10.23;;;8.10;92.40;;;;;;4960843;28;20043;-81
2024/03/10 03:32:16;;;;;;;18.38;11.48;;;8.10;92.40;;;;;;4949821;28;20050;-80
2024/03/10 03:34:43;;;;;;;17.42;11.05;;;8.10;92.40;;;;;;4939234;28;20046;-80
2024/03/10 03:37:12;;;;;;;16.63;10.40;;;8.10;92.40;;;;;;4920559;28;20050;-80
2024/03/10 03:39:39;;;;;;;16.20;10.32;;;8.10;92.40;;;;;;4934618;28;20047;-80
2024/03/10 03:42:06;;;;;;;17.08;10.70;;;8.10;92.40;;;;;;4960499;28;20035;-81
2024/03/10 03:44:34;;;;;;;17.20;10.95;;;8.10;92.40;;;;;;4935809;29;20051;-81
2024/03/10 03:47:01;;;;;;;15.98;10.90;;;8.10;92.40;;;;;;4943952;28;20411;-81
2024/03/10 03:49:29;;;;;;;19.60;11.93;;;8.10;92.40;;;;;;4932517;28;20089;-81
2024/03/10 03:52:04;;;;;;;14.13;9.10;;;8.10;92.40;;;;;;4948727;28;20057;-85
2024/03/10 03:54:34;;;;;;;13.85;9.25;;;8.10;92.40;;;;;;4956696;28;20050;-80
2024/03/10 03:57:01;;;;;;;13.70;8.23;;;8.00;92.40;;;;;;4932317;28;20046;-80
2024/03/10 03:59:28;;;;;;;17.02;10.07;;;8.00;92.40;;;;;;4934998;28;20047;-81
2024/03/10 04:01:55;;;;;;;15.43;9.38;;;8.00;92.70;;;;;;4970054;28;20117;-82
2024/03/10 04:04:22;;;;;;;19.27;11.13;;;8.00;92.50;;;;;;4959176;28;20055;-81
2024/03/10 04:06:49;;;;;;;16.25;10.38;;;8.00;92.50;;;;;;4972544;28;20057;-82
2024/03/10 04:09:18;;;;;;;16.98;10.30;;;8.00;92.50;;;;;;4966680;28;20050;-83
2024/03/10 04:11:45;;;;;;;15.65;10.15;;;7.90;92.60;;;;;;4952704;29;20054;-83
2024/03/10 04:14:13;;;;;;;15.40;10.32;;;7.90;92.60;;;;;;4925819;28;20051;-82
2024/03/10 04:16:46;;;;;;;16.17;9.80;;;7.90;92.60;;;;;;4974812;28;20049;-84
2024/03/10 04:19:13;;;;;;;18.77;12.18;;;7.80;92.70;;;;;;4945738;28;20076;-82
2024/03/10 04:21:40;;;;;;;17.55;10.57;;;7.70;92.70;;;;;;4954149;28;20608;-82
2024/03/10 04:24:09;;;;;;;19.52;11.07;;;7.70;92.80;;;;;;4948736;29;20507;-82
2024/03/10 04:26:41;;;;;;;19.50;11.40;;;7.70;92.90;;;;;;4946851;29;20051;-81
2024/03/10 04:29:12;;;;;;;19.05;11.18;;;7.60;92.90;;;;;;4965199;28;20047;-81
2024/03/10 04:31:39;;;;;;;18.13;10.80;;;7.60;92.90;;;;;;4934947;28;20043;-81
2024/03/10 04:34:08;;;;;;;19.58;12.15;;;7.60;92.90;;;;;;4958618;28;20047;-80
2024/03/10 04:36:35;;;;;;;19.45;11.90;;;7.60;93.00;;;;;;4947481;28;20057;-82
2024/03/10 04:39:02;;;;;;;17.90;11.70;;;7.50;92.90;;;;;;4923387;28;20043;-83
2024/03/10 04:41:29;;;;;;;21.45;14.07;;;7.50;92.90;;;;;;4925155;29;20050;-82
2024/03/10 04:43:56;;;;;;;20.52;12.68;;;7.40;92.90;;;;;;4973724;28;20046;-81
2024/03/10 04:46:24;;;;;;;20.88;12.57;;;7.40;92.90;;;;;;4966316;28;20043;-82
2024/03/10 04:48:57;;;;;;;18.95;12.38;;;7.40;92.90;;;;;;4942176;28;20439;-81
2024/03/10 04:51:24;;;;;;;17.58;11.00;;;7.40;93.00;;;;;;4958121;28;20042;-81
2024/03/10 04:53:53;;;;;;;18.88;11.93;;;7.40;93.10;;;;;;4927962;28;20389;-82
2024/03/10 04:56:20;;;;;;;19.25;12.18;;;7.40;93.00;;;;;;4964915;28;20411;-81
2024/03/10 04:58:49;;;;;;;19.38;12.40;;;7.40;93.10;;;;;;4911390;29;20048;-82
2024/03/10 05:01:19;;;;;;;17.77;11.02;;;7.40;93.00;;;;;;4931094;28;20392;-82
2024/03/10 05:03:49;;;;;;;20.27;11.15;;;7.40;93.10;;;;;;4912569;28;20403;-82
2024/03/10 05:06:16;;;;;;;17.65;11.35;;;7.30;93.00;;;;;;4952870;28;20073;-83
2024/03/10 05:08:46;;;;;;;20.85;12.52;;;7.30;93.10;;;;;;4948149;28;20053;-82
2024/03/10 05:11:18;;;;;;;19.70;12.05;;;7.30;93.00;;;;;;4936209;28;20450;-81
2024/03/10 05:13:48;;;;;;;;;;;7.30;93.00;;;;;;4954086;28;20092;-81
2024/03/10 05:16:18;;;;;;;16.98;10.93;;;7.30;93.10;;;;;;4965199;28;20393;-82
2024/03/10 05:18:45;;;;;;;19.73;12.05;;;7.20;93.10;;;;;;4910568;28;20102;-81
2024/03/10 05:21:13;;;;;;;21.13;12.23;;;7.20;93.10;;;;;;4944565;28;20038;-82
2024/03/10 05:23:40;;;;;;;18.15;10.82;;;7.20;93.10;;;;;;4941955;28;20053;-81
2024/03/10 05:26:07;;;;;;;18.98;10.88;;;7.30;93.10;;;;;;4944962;28;20043;-82
2024/03/10 05:28:34;;;;;;;18.13;11.15;;;7.30;93.10;;;;;;4954588;28;20376;-82
2024/03/10 05:31:01;;;;;;;17.45;10.18;;;7.30;93.10;;;;;;4919888;28;20055;-82
2024/03/10 05:33:30;;;;;;;19.58;11.82;;;7.20;93.10;;;;;;4926361;28;20050;-82
2024/03/10 05:35:58;;;;;;;20.15;12.23;;;7.20;93.20;;;;;;4957043;28;20439;-81
2024/03/10 05:38:25;;;;;;;21.90;11.85;;;7.20;93.20;;;;;;4925352;28;20047;-81
2024/03/10 05:40:53;;;;;;;19.95;12.52;;;7.20;93.20;;;;;;4921876;28;20506;-82
2024/03/10 05:43:20;;;;;;;19.02;11.07;;;7.20;93.30;;;;;;4941506;28;20046;-81
2024/03/10 05:45:47;;;;;;;22.77;12.93;;;7.20;93.30;;;;;;4902758;29;20066;-81
2024/03/10 05:48:16;;;;;;;20.40;12.77;;;7.10;93.30;;;;;;4908906;28;20062;-82
2024/03/10 05:50:43;;;;;;;20.83;13.05;;;7.20;93.30;;;;;;4923223;29;20051;-81
2024/03/10 05:53:10;;;;;;;23.27;13.57;;;7.20;93.20;;;;;;4896291;29;20546;-82
2024/03/10 05:55:37;;;;;;;20.20;12.77;;;7.20;93.20;;;;;;4937655;29;20492;-82
2024/03/10 05:58:04;;;;;;;21.17;12.73;;;7.20;93.20;;;;;;4906248;29;20415;-82
2024/03/10 06:00:31;;;;;;;19.63;12.05;;;7.20;93.20;;;;;;4913644;28;20047;-82
2024/03/10 06:02:59;;;;;;;18.35;10.60;;;7.20;93.20;;;;;;4930507;28;20052;-82
2024/03/10 06:05:26;;;;;;;18.50;11.00;;;7.20;93.30;;;;;;4929805;28;20049;-82
2024/03/10 06:07:53;;;;;;;17.70;10.40;;;7.10;93.30;;;;;;4926612;28;20091;-83
2024/03/10 06:10:21;;;;;;;19.45;11.73;;;7.10;93.30;;;;;;4944575;29;20043;-82
2024/03/10 06:12:50;;;;;;;18.67;11.77;;;7.10;93.30;;;;;;4947525;29;20070;-82
2024/03/10 06:15:19;;;;;;;20.15;12.63;;;7.10;93.30;;;;;;4899288;29;20162;-82
2024/03/10 06:18:03;;;;;;;18.90;11.38;;;7.10;93.30;;;;;;4908123;28;20055;-82
2024/03/10 06:25:22;;;;;;;20.00;12.13;;;7.10;93.40;;;;;;4945948;29;20150;-82
2024/03/10 06:26:23;;;;;;;22.83;12.73;;;7.10;93.40;;;;;;4932805;29;20051;-81
2024/03/10 06:28:54;;;;;;;22.83;13.73;;;7.10;93.40;;;;;;4908605;29;20306;-81
2024/03/10 06:31:21;;;;;;;23.40;13.90;;;7.10;93.40;;;;;;4937632;29;20052;-82
2024/03/10 06:33:51;;;;;;;21.17;12.30;;;7.10;93.30;;;;;;4919541;29;20055;-82
2024/03/10 06:36:23;;;;;;;22.70;13.27;;;7.10;93.30;;;;;;4918042;29;20377;-81
2024/03/10 06:38:50;;;;;;;19.98;11.65;;;7.10;93.30;;;;;;4890977;29;20063;-82
2024/03/10 06:41:17;;;;;;;20.63;12.70;;;7.10;93.30;;;;;;4946404;29;20039;-82
2024/03/10 06:43:45;;;;;;;21.77;12.20;;;7.20;93.30;;;;;;4909202;29;20114;-81
2024/03/10 06:46:13;;;;;;;23.88;12.18;;;7.20;93.20;;;;;;4946733;28;20050;-81
2024/03/10 06:48:41;;;;;;;19.20;11.98;;;7.20;93.20;;;;;;4947868;28;20392;-81
2024/03/10 06:51:09;;;;;;;19.45;11.85;;;7.20;93.20;;;;;;4920638;29;20595;-82
2024/03/10 06:53:37;;;;;;;19.10;11.68;;;7.30;93.20;;;;;;4954544;28;20050;-82
2024/03/10 06:56:05;;;;;;;25.00;14.23;;;7.30;93.20;;;;;;4938438;28;20043;-81
2024/03/10 06:58:32;;;;;;;19.40;11.32;;;7.40;93.00;;;;;;4943770;28;20146;-82
2024/03/10 07:01:02;;;;;;;22.63;12.60;;;7.40;93.00;;;;;;4962032;28;20447;-82
2024/03/10 07:03:30;;;;;;;19.92;11.80;;;7.40;93.00;;;;;;4979332;28;20043;-82
2024/03/10 07:06:00;;;;;;;21.95;12.60;;;7.40;93.00;;;;;;4949117;28;20061;-83
2024/03/10 07:08:27;;;;;;;21.35;12.57;;;7.40;93.00;;;;;;4961947;28;20081;-83
2024/03/10 07:10:55;;;;;;;18.85;10.95;;;7.40;93.00;;;;;;4943499;28;20059;-82
2024/03/10 07:13:22;;;;;;;19.95;11.88;;;7.40;93.00;;;;;;4919634;28;20070;-83
2024/03/10 07:15:50;;;;;;;18.33;11.15;;;7.40;93.00;;;;;;4941461;28;20122;-82
2024/03/10 07:18:21;;;;;;;19.00;10.70;;;7.40;93.00;;;;;;4943822;28;20043;-82
2024/03/10 07:20:53;;;;;;;18.52;11.27;;;7.50;93.10;;;;;;4964792;28;20487;-81
2024/03/10 07:23:21;;;;;;;18.77;11.45;;;7.50;93.00;;;;;;4947668;28;20129;-82
2024/03/10 07:25:49;;;;;;;20.10;11.15;;;7.50;93.00;;;;;;4950037;28;20098;-81
2024/03/10 07:28:16;;;;;;;22.63;13.38;;;7.60;93.00;;;;;;4943309;28;20050;-82
2024/03/10 07:30:43;;;;;;;19.85;12.15;;;7.60;92.90;;;;;;4942205;28;20050;-83
2024/03/10 07:33:11;;;;;;;20.85;12.07;;;7.60;92.80;;;;;;4967458;28;20146;-82
2024/03/10 07:35:38;;;;;;;16.33;9.82;;;7.60;92.80;;;;;;4937334;28;20067;-82
2024/03/10 07:38:06;;;;;;;15.48;9.30;;;7.70;92.80;;;;;;4946579;28;20102;-82
2024/03/10 07:40:34;;;;;;;14.68;8.75;;;7.70;92.90;;;;;;4942963;28;20047;-81
2024/03/10 07:43:01;;;;;;;21.08;13.40;;;7.70;92.90;;;;;;4953046;28;20070;-82
2024/03/10 07:45:32;;;;;;;17.90;10.82;;;7.80;92.80;;;;;;4956997;28;20090;-82
2024/03/10 07:48:02;;;;;;;16.35;10.00;;;7.80;92.70;;;;;;4929844;29;20055;-82
2024/03/10 07:50:29;;;;;;;15.40;9.70;;;7.90;92.70;;;;;;4952172;29;20055;-82
2024/03/10 07:52:56;;;;;;;15.75;8.68;;;7.90;92.60;;;;;;4939399;29;20587;-82
2024/03/10 07:55:24;;;;;;;14.90;9.60;;;8.00;92.60;;;;;;4931628;28;20043;-82
2024/03/10 07:57:54;;;;;;;16.02;9.57;;;8.10;92.50;;;;;;4926314;28;20043;-83
2024/03/10 08:00:25;;;;;;;16.13;9.63;;;8.20;92.50;;;;;;4943013;28;20137;-82
2024/03/10 08:02:56;;;;;;;;;;;8.30;92.70;;;;;;4944268;29;20134;-82
2024/03/10 08:05:23;;;;;;;12.30;7.43;;;8.30;92.40;;;;;;4943361;28;19922;-81
2024/03/10 08:07:52;;;;;;;14.00;8.60;;;8.40;92.40;;;;;;4915452;29;20047;-81
2024/03/10 08:10:19;;;;;;;15.05;8.88;;;8.50;92.30;;;;;;4939166;29;20415;-82
2024/03/10 08:12:47;;;;;;;12.70;8.10;;;8.50;92.20;;;;;;4929624;28;21243;-82
2024/03/10 08:15:19;;;;;;;14.10;8.45;;;8.60;92.20;;;;;;4908464;28;20047;-81
2024/03/10 08:17:46;;;;;;;11.77;7.37;;;8.70;92.10;;;;;;4939171;28;20134;-81
2024/03/10 08:20:14;;;;;;;14.02;9.00;;;8.80;92.10;;;;;;4932412;28;20170;-80
2024/03/10 08:22:43;;;;;;;16.48;9.65;;;8.80;92.00;;;;;;4918313;28;20082;-81
2024/03/10 08:25:11;;;;;;;15.52;9.18;;;8.90;91.90;;;;;;4942399;28;20146;-80
2024/03/10 08:27:38;;;;;;;14.20;8.25;;;8.90;91.90;;;;;;4942564;29;20043;-81
2024/03/10 08:30:09;;;;;;;13.35;8.82;;;9.00;91.90;;;;;;4944716;28;20047;-80
2024/03/10 08:32:37;;;;;;;12.90;8.13;;;9.00;91.90;;;;;;4907234;29;20146;-80
2024/03/10 08:35:09;;;;;;;16.50;9.70;;;9.00;91.90;;;;;;4907327;29;20051;-82
2024/03/10 08:37:44;;;;;;;16.23;9.05;;;9.00;91.80;;;;;;4910273;29;20110;-80
2024/03/10 08:40:18;;;;;;;13.93;8.70;;;8.90;91.80;;;;;;4912855;29;20421;-81
2024/03/10 08:42:47;;;;;;;14.90;9.20;;;9.00;91.80;;;;;;4955925;29;20102;-81
2024/03/10 08:45:14;;;;;;;13.63;8.57;;;9.00;91.90;;;;;;4940461;28;20047;-81
2024/03/10 08:47:43;;;;;;;16.38;9.38;;;9.00;91.90;;;;;;4964967;28;20510;-81
2024/03/10 08:50:11;;;;;;;14.85;9.77;;;8.90;91.80;;;;;;4959816;28;20475;-81
2024/03/10 08:52:40;;;;;;;15.43;8.88;;;8.90;91.70;;;;;;4979338;28;20134;-81
2024/03/10 08:55:08;;;;;;;16.08;9.88;;;9.00;91.80;;;;;;4953428;28;20097;-81
2024/03/10 08:57:39;;;;;;;13.52;8.32;;;9.10;91.80;;;;;;4942149;28;20046;-82
2024/03/10 09:00:08;;;;;;;16.63;10.20;;;9.20;91.70;;;;;;4954120;28;20042;-80
2024/03/10 09:02:36;;;;;;;14.85;10.30;;;9.20;91.50;;;;;;4950931;29;20283;-81
2024/03/10 09:05:07;;;;;;;16.27;9.73;;;9.30;91.40;;;;;;4941513;28;20083;-81
2024/03/10 09:07:35;;;;;;;16.02;9.05;;;9.40;91.30;;;;;;4959434;28;20050;-81
2024/03/10 09:10:04;;;;;;;16.27;10.00;;;9.50;91.20;;;;;;4957452;28;20045;-80
2024/03/10 09:12:32;;;;;;;15.18;9.35;;;9.60;91.10;;;;;;4970227;28;20038;-80
2024/03/10 09:15:01;;;;;;;15.32;9.77;;;9.70;91.00;;;;;;4917684;29;20043;-80
2024/03/10 09:17:29;;;;;;;17.73;10.35;;;9.80;90.90;;;;;;4960666;28;20038;-80
2024/03/10 09:19:58;;;;;;;15.35;9.50;;;9.80;90.70;;;;;;4950662;29;20065;-81
2024/03/10 09:22:25;;;;;;;17.85;10.38;;;9.90;90.70;;;;;;4947787;28;20566;-81
2024/03/10 09:24:54;;;;;;;15.13;10.07;;;10.00;90.70;;;;;;4928537;28;20466;-81
2024/03/10 09:27:22;;;;;;;16.85;10.63;;;10.00;90.50;;;;;;4947871;28;20049;-81
2024/03/10 09:29:51;;;;;;;15.57;9.77;;;10.10;90.40;;;;;;4962027;28;20042;-82
2024/03/10 09:32:22;;;;;;;15.57;9.88;;;10.10;90.70;;;;;;4950917;28;20043;-82
2024/03/10 09:34:51;;;;;;;18.90;10.32;;;10.10;90.30;;;;;;4944313;29;20543;-84
2024/03/10 09:37:19;;;;;;;14.32;9.75;;;10.20;90.30;;;;;;4945829;28;20050;-83
2024/03/10 09:39:52;;;;;;;15.95;10.38;;;10.20;90.20;;;;;;4958096;28;20129;-82
2024/03/10 09:42:21;;;;;;;13.35;8.30;;;10.30;90.20;;;;;;4951784;28;20050;-82
2024/03/10 09:44:50;;;;;;;14.10;8.70;;;10.30;90.20;;;;;;4958564;28;20047;-80
2024/03/10 09:47:20;;;;;;;16.27;9.38;;;10.40;90.20;;;;;;4970676;28;20130;-81
2024/03/10 09:49:50;;;;;;;16.50;10.32;;;10.50;90.20;;;;;;4946228;28;20050;-81
2024/03/10 09:52:19;;;;;;;18.17;11.20;;;10.50;90.00;;;;;;4942399;28;20392;-80
2024/03/10 09:54:46;;;;;;;18.00;11.77;;;10.50;89.80;;;;;;4986739;28;20483;-81
2024/03/10 09:57:13;;;;;;;16.75;10.73;;;10.50;89.80;;;;;;4924828;28;20054;-81
2024/03/10 09:59:46;;;;;;;19.45;11.65;;;10.50;89.80;;;;;;4952742;29;20439;-82
2024/03/10 10:02:42;;;;;;;16.58;10.27;;;10.50;89.40;;;;;;4949655;28;20082;-81
2024/03/10 10:05:24;;;;;;;19.08;11.68;;;10.50;89.60;;;;;;4949643;29;20110;-81
2024/03/10 10:07:55;;;;;;;18.60;11.63;;;10.50;89.50;;;;;;4954754;29;20066;-81
2024/03/10 10:10:23;;;;;;;15.93;10.13;;;10.50;89.60;;;;;;4969397;28;20098;-81
2024/03/10 10:12:50;;;;;;;15.18;10.18;;;10.60;89.70;;;;;;4944927;28;20049;-80
2024/03/10 10:15:22;;;;;;;15.55;10.13;;;10.60;89.50;;;;;;4946711;28;20051;-79
2024/03/10 10:17:57;;;;;;;16.88;9.95;;;10.70;89.30;;;;;;4962140;28;20039;-77
2024/03/10 10:20:32;;;;;;;15.30;9.50;;;10.80;88.90;;;;;;4941283;29;20047;-81
2024/03/10 10:23:02;;;;;;;15.90;10.57;;;10.90;89.10;;;;;;4928211;28;20039;-80
2024/03/10 10:25:35;;;;;;;18.48;12.02;;;10.90;88.80;;;;;;4955742;28;20059;-80
2024/03/10 10:28:02;;;;;;;;;;;11.00;88.50;;;;;;4947260;29;20059;-80
2024/03/10 10:30:30;;;;;;;17.80;10.85;;;10.90;88.50;;;;;;4960168;28;19973;-80
2024/03/10 10:33:14;;;;;;;18.10;12.02;;;10.90;88.50;;;;;;4973039;28;20046;-80
2024/03/10 10:35:45;;;;;;;18.00;11.63;;;11.00;88.40;;;;;;4898032;29;20053;-78
2024/03/10 10:38:13;;;;;;;18.17;11.30;;;10.90;88.00;;;;;;4967930;28;20559;-80
2024/03/10 10:40:51;;;;;;;17.85;11.18;;;10.90;88.10;;;;;;4953922;28;20295;-80
2024/03/10 10:43:21;;;;;;;14.85;10.65;;;11.00;88.00;;;;;;4960069;28;20038;-80
2024/03/10 10:45:52;;;;;;;15.98;9.93;;;11.10;88.00;;;;;;4958030;28;20051;-80
2024/03/10 10:48:20;;;;;;;14.18;9.25;;;11.10;87.80;;;;;;4959738;28;20046;-79
2024/03/10 10:50:47;;;;;;;13.25;8.82;;;11.20;87.80;;;;;;4968552;28;20054;-79
2024/03/10 10:53:15;;;;;;;14.75;9.68;;;11.30;87.80;;;;;;4958338;28;20039;-80
2024/03/10 10:55:45;;;;;;;14.77;9.25;;;11.30;87.70;;;;;;4968830;28;20039;-80
2024/03/10 10:58:16;;;;;;;15.30;10.23;;;11.30;87.40;;;;;;4940407;29;20055;-84
2024/03/10 11:01:07;;;;;;;16.33;10.82;;;11.30;86.90;;;;;;4982905;28;20462;-81
2024/03/10 11:03:36;;;;;;;15.98;10.38;;;11.40;86.60;;;;;;4963011;28;20047;-81
2024/03/10 11:06:06;;;;;;;17.77;10.93;;;11.30;86.60;;;;;;4961934;28;20063;-81
2024/03/10 11:08:41;;;;;;;17.10;10.68;;;11.40;86.60;;;;;;4976644;28;20467;-79
2024/03/10 11:11:09;;;;;;;16.55;10.55;;;11.40;86.20;;;;;;4947653;29;20054;-79
2024/03/10 11:13:40;;;;;;;13.98;9.05;;;11.50;86.10;;;;;;4951931;28;20463;-80
2024/03/10 11:16:10;;;;;;;15.77;10.70;;;11.60;86.10;;;;;;4976480;28;20423;-81
2024/03/10 11:18:38;;;;;;;15.20;9.73;;;11.80;85.70;;;;;;4963692;28;20484;-81
2024/03/10 11:21:10;;;;;;;13.75;9.27;;;11.90;85.50;;;;;;4945921;28;20047;-80
2024/03/10 11:23:46;;;;;;;13.80;9.60;;;12.00;85.20;;;;;;4949889;28;20047;-81
2024/03/10 11:26:20;;;;;;;15.35;9.57;;;12.10;85.10;;;;;;4959159;28;20046;-80
2024/03/10 11:28:55;;;;;;;18.88;11.55;;;12.20;84.80;;;;;;4973392;28;20070;-81
2024/03/10 11:31:23;;;;;;;;;;;12.20;84.40;;;;;;4929036;28;20575;-82
2024/03/10 11:33:52;;;;;;;16.48;10.25;;;12.20;84.10;;;;;;4970870;28;19922;-82
2024/03/10 11:36:22;;;;;;;17.13;10.90;;;12.30;84.30;;;;;;4961270;28;20034;-81
2024/03/10 11:38:52;;;;;;;14.68;9.93;;;12.40;83.80;;;;;;4970155;28;20102;-81
2024/03/10 11:41:23;;;;;;;14.18;9.90;;;12.50;83.80;;;;;;4936964;28;20049;-81
2024/03/10 11:43:51;;;;;;;15.15;9.73;;;12.60;83.70;;;;;;4944168;29;20055;-81
2024/03/10 11:46:21;;;;;;;17.70;11.38;;;12.70;83.60;;;;;;4950951;28;20051;-82
2024/03/10 11:48:57;;;;;;;17.35;10.25;;;12.80;83.00;;;;;;4944952;28;20062;-82
2024/03/10 11:51:28;;;;;;;13.95;8.68;;;12.80;83.10;;;;;;4958670;28;20050;-81
2024/03/10 11:53:56;;;;;;;12.70;7.30;;;12.80;83.30;;;;;;4975672;28;20130;-80
2024/03/10 11:56:24;;;;;;;15.20;9.90;;;12.80;83.50;;;;;;4949825;28;20043;-87
2024/03/10 11:58:58;;;;;;;16.48;10.23;;;12.80;82.90;;;;;;4962789;28;20491;-78
2024/03/10 12:01:30;;;;;;;14.32;9.27;;;12.80;82.80;;;;;;4934603;29;20513;-77
2024/03/10 12:04:03;;;;;;;13.00;8.82;;;12.80;83.10;;;;;;4971382;28;20050;-82
2024/03/10 12:06:30;;;;;;;14.77;9.52;;;12.80;83.70;;;;;;4950581;28;20050;-79
2024/03/10 12:08:57;;;;;;;10.60;7.68;;;12.90;83.00;;;;;;4947144;28;20046;-79
2024/03/10 12:11:24;;;;;;;12.35;7.90;;;12.90;83.10;;;;;;4926110;28;20039;-79
2024/03/10 12:13:53;;;;;;;12.25;8.18;;;13.00;83.00;;;;;;4964506;28;20046;-81
2024/03/10 12:16:21;;;;;;;12.80;8.35;;;13.10;82.90;;;;;;4948932;28;20070;-79
2024/03/10 12:18:49;;;;;;;15.02;9.52;;;13.20;82.60;;;;;;4965893;28;20104;-80
2024/03/10 12:21:25;;;;;;;14.23;9.20;;;13.30;81.80;;;;;;4944602;28;20034;-83
2024/03/10 12:23:52;;;;;;;19.17;12.82;;;13.40;81.70;;;;;;4958827;28;20046;-80
2024/03/10 12:26:22;;;;;;;17.35;11.55;;;13.40;81.20;;;;;;4957851;28;20046;-80
2024/03/10 12:28:49;;;;;;;18.38;12.20;;;13.50;80.70;;;;;;4958024;28;20074;-81
2024/03/10 12:31:20;;;;;;;16.92;10.70;;;13.50;80.60;;;;;;4958373;28;20081;-80
2024/03/10 12:33:49;;;;;;;16.52;10.75;;;13.50;80.70;;;;;;4914779;28;20053;-79
2024/03/10 12:36:17;;;;;;;16.30;10.98;;;13.50;80.80;;;;;;4950779;28;20053;-80
2024/03/10 12:38:44;;;;;;;19.23;12.32;;;13.50;80.50;;;;;;4975209;28;20034;-79
2024/03/10 12:41:23;;;;;;;18.27;12.77;;;13.50;80.40;;;;;;4948166;29;20396;-80
2024/03/10 12:43:55;;;;;;;18.52;12.57;;;13.40;79.80;;;;;;4955513;28;20487;-82
2024/03/10 12:46:23;;;;;;;18.90;13.55;;;13.40;80.10;;;;;;4926945;28;20057;-81
2024/03/10 12:48:52;;;;;;;18.80;13.13;;;13.40;80.10;;;;;;4944416;28;20130;-81
2024/03/10 12:51:20;;;;;;;17.85;11.55;;;13.40;80.10;;;;;;4933382;28;20055;-82
2024/03/10 12:53:48;;;;;;;15.77;10.23;;;13.50;80.30;;;;;;4940297;28;20070;-81
2024/03/10 12:56:16;;;;;;;14.88;9.48;;;13.50;80.30;;;;;;4938562;29;20043;-81
2024/03/10 12:58:44;;;;;;;17.17;10.30;;;13.60;80.20;;;;;;4968508;28;20483;-80
2024/03/10 13:01:11;;;;;;;15.68;10.27;;;13.70;80.00;;;;;;4954009;28;20038;-81
2024/03/10 13:03:38;;;;;;;14.23;9.57;;;13.80;79.90;;;;;;4950817;28;20051;-82
2024/03/10 13:06:06;;;;;;;14.48;9.75;;;13.80;79.80;;;;;;4939254;28;20039;-83
2024/03/10 13:08:33;;;;;;;16.42;10.90;;;13.80;79.70;;;;;;4942258;28;20045;-81